createdAt,value
2022-12-01T00:00:02.254Z,48.24
2022-12-01T00:01:02.207Z,49.39
2022-12-01T00:02:00.810Z,46.67
2022-12-01T00:03:01.506Z,51.80
2022-12-01T00:04:04.152Z,50.65
2022-12-01T00:05:01.714Z,50.81
2022-12-01T00:06:00.652Z,69.96
2022-12-01T00:07:00.965Z,52.18
2022-12-01T00:08:00.618Z,50.46
2022-12-01T00:10:01.677Z,45.60
2022-12-01T00:11:01.434Z,47.09
2022-12-01T00:12:00.644Z,46.96
2022-12-01T00:13:03.373Z,47.26
2022-12-01T00:14:00.493Z,49.16
2022-12-01T00:15:00.796Z,47.28
2022-12-01T00:16:00.501Z,48.43
2022-12-01T00:17:02.103Z,49.84
2022-12-01T00:18:02.558Z,45.36
2022-12-01T00:19:00.399Z,46.00
2022-12-01T00:20:00.481Z,46.54
2022-12-01T00:21:00.580Z,44.99
2022-12-01T00:22:00.408Z,45.36
2022-12-01T00:23:00.528Z,45.84
2022-12-01T00:24:00.807Z,47.36
2022-12-01T00:25:00.363Z,50.11
2022-12-01T00:26:00.528Z,46.09
2022-12-01T00:27:00.398Z,47.89
2022-12-01T00:28:01.731Z,49.37
2022-12-01T00:29:00.504Z,50.72
2022-12-01T00:30:00.553Z,54.04
2022-12-01T00:31:00.503Z,54.84
2022-12-01T00:32:05.188Z,53.93
2022-12-01T00:33:00.445Z,58.15
2022-12-01T00:34:00.913Z,57.83
2022-12-01T00:35:00.391Z,58.59
2022-12-01T00:36:01.451Z,57.40
2022-12-01T00:37:00.466Z,63.65
2022-12-01T00:38:01.199Z,58.02
2022-12-01T00:39:01.586Z,59.67
2022-12-01T00:40:00.920Z,62.26
2022-12-01T00:41:00.484Z,56.11
2022-12-01T00:42:00.983Z,56.70
2022-12-01T00:43:00.432Z,54.25
2022-12-01T00:44:00.611Z,50.20
2022-12-01T00:45:00.338Z,51.15
2022-12-01T00:46:00.426Z,49.72
2022-12-01T00:47:00.391Z,47.68
2022-12-01T00:48:00.468Z,48.15
2022-12-01T00:49:01.568Z,47.15
2022-12-01T00:50:00.677Z,46.57
2022-12-01T00:51:01.845Z,46.76
2022-12-01T00:52:00.407Z,46.01
2022-12-01T00:53:00.346Z,46.13
2022-12-01T00:54:00.446Z,46.39
2022-12-01T00:55:01.557Z,49.92
2022-12-01T00:56:00.429Z,47.02
2022-12-01T00:57:00.575Z,48.26
2022-12-01T00:58:00.681Z,47.06
2022-12-01T00:59:01.863Z,48.46
2022-12-01T01:00:02.741Z,46.28
2022-12-01T01:01:01.592Z,47.51
2022-12-01T01:02:00.800Z,47.20
2022-12-01T01:03:01.556Z,46.48
2022-12-01T01:04:00.477Z,48.02
2022-12-01T01:05:01.480Z,48.20
2022-12-01T01:06:00.612Z,47.93
2022-12-01T01:07:00.890Z,46.22
2022-12-01T01:08:00.515Z,47.06
2022-12-01T01:09:00.361Z,49.23
2022-12-01T01:10:02.108Z,48.98
2022-12-01T01:11:00.847Z,48.56
2022-12-01T01:12:00.426Z,49.43
2022-12-01T01:13:00.391Z,46.47
2022-12-01T01:14:01.656Z,47.89
2022-12-01T01:15:00.417Z,46.15
2022-12-01T01:16:01.839Z,47.23
2022-12-01T01:17:00.643Z,50.56
2022-12-01T01:18:00.341Z,46.10
2022-12-01T01:19:00.511Z,47.47
2022-12-01T01:20:02.217Z,47.22
2022-12-01T01:21:00.736Z,49.22
2022-12-01T01:22:02.637Z,47.41
2022-12-01T01:23:00.414Z,46.94
2022-12-01T01:24:01.569Z,48.87
2022-12-01T01:25:00.326Z,49.47
2022-12-01T01:26:00.344Z,51.39
2022-12-01T01:27:00.397Z,47.81
2022-12-01T01:28:00.862Z,48.78
2022-12-01T01:29:00.445Z,49.65
2022-12-01T01:30:01.482Z,48.44
2022-12-01T01:31:00.451Z,45.63
2022-12-01T01:32:01.554Z,47.26
2022-12-01T01:33:00.625Z,47.71
2022-12-01T01:34:01.793Z,45.13
2022-12-01T01:35:00.338Z,46.94
2022-12-01T01:36:00.436Z,48.05
2022-12-01T01:37:00.468Z,47.61
2022-12-01T01:38:00.732Z,47.06
2022-12-01T01:39:00.645Z,48.00
2022-12-01T01:40:00.406Z,51.53
2022-12-01T01:41:00.587Z,47.60
2022-12-01T01:42:00.567Z,50.31
2022-12-01T01:43:02.153Z,48.55
2022-12-01T01:45:00.403Z,46.95
2022-12-01T01:46:02.139Z,48.67
2022-12-01T01:47:00.678Z,47.99
2022-12-01T01:48:00.871Z,47.97
2022-12-01T01:49:00.927Z,46.80
2022-12-01T01:50:02.813Z,47.40
2022-12-01T01:51:01.535Z,50.04
2022-12-01T01:52:00.569Z,48.22
2022-12-01T01:53:00.894Z,47.78
2022-12-01T01:54:01.894Z,49.14
2022-12-01T01:55:01.069Z,47.97
2022-12-01T01:56:01.880Z,47.06
2022-12-01T01:57:00.888Z,47.71
2022-12-01T01:58:01.530Z,48.76
2022-12-01T01:59:01.632Z,50.19
2022-12-01T02:00:02.178Z,47.08
2022-12-01T02:02:00.630Z,50.68
2022-12-01T02:03:00.632Z,47.96
2022-12-01T02:04:02.580Z,49.48
2022-12-01T02:05:01.043Z,49.76
2022-12-01T02:06:04.839Z,49.56
2022-12-01T02:08:02.202Z,48.35
2022-12-01T02:09:02.090Z,46.54
2022-12-01T02:10:02.109Z,48.31
2022-12-01T02:11:01.616Z,49.19
2022-12-01T02:12:00.981Z,45.69
2022-12-01T02:13:00.543Z,45.37
2022-12-01T02:14:00.545Z,48.39
2022-12-01T02:15:00.558Z,46.60
2022-12-01T02:16:01.587Z,49.06
2022-12-01T02:17:00.814Z,50.53
2022-12-01T02:18:00.982Z,49.16
2022-12-01T02:19:00.364Z,46.38
2022-12-01T02:20:01.625Z,50.24
2022-12-01T02:21:00.335Z,47.00
2022-12-01T02:22:01.786Z,48.16
2022-12-01T02:23:00.506Z,48.45
2022-12-01T02:24:00.848Z,49.41
2022-12-01T02:25:00.427Z,47.34
2022-12-01T02:26:00.497Z,49.18
2022-12-01T02:27:00.544Z,49.10
2022-12-01T02:28:00.455Z,48.33
2022-12-01T02:29:00.344Z,50.00
2022-12-01T02:30:00.515Z,47.04
2022-12-01T02:31:00.454Z,49.96
2022-12-01T02:32:00.582Z,47.25
2022-12-01T02:33:00.432Z,49.57
2022-12-01T02:34:00.487Z,51.75
2022-12-01T02:35:00.362Z,50.94
2022-12-01T02:36:00.527Z,47.67
2022-12-01T02:37:00.310Z,50.72
2022-12-01T02:38:00.780Z,47.95
2022-12-01T02:39:01.551Z,50.84
2022-12-01T02:40:00.438Z,46.02
2022-12-01T02:41:00.397Z,48.18
2022-12-01T02:42:00.397Z,51.70
2022-12-01T02:43:00.711Z,50.78
2022-12-01T02:44:01.135Z,48.56
2022-12-01T02:45:00.870Z,49.20
2022-12-01T02:46:00.557Z,49.49
2022-12-01T02:47:00.800Z,48.20
2022-12-01T02:48:00.556Z,49.77
2022-12-01T02:49:04.536Z,47.36
2022-12-01T02:50:01.806Z,48.00
2022-12-01T02:51:00.424Z,50.93
2022-12-01T02:52:00.432Z,47.56
2022-12-01T02:53:00.574Z,55.38
2022-12-01T02:54:00.792Z,47.64
2022-12-01T02:55:00.622Z,49.67
2022-12-01T02:56:00.709Z,46.55
2022-12-01T02:57:01.783Z,47.94
2022-12-01T02:58:00.602Z,48.15
2022-12-01T02:59:00.486Z,49.10
2022-12-01T03:01:01.349Z,46.30
2022-12-01T03:02:00.359Z,48.67
2022-12-01T03:03:00.602Z,48.83
2022-12-01T03:04:01.910Z,47.76
2022-12-01T03:05:00.339Z,48.52
2022-12-01T03:06:01.349Z,46.24
2022-12-01T03:07:00.367Z,46.53
2022-12-01T03:08:00.586Z,47.26
2022-12-01T03:09:00.547Z,47.72
2022-12-01T03:10:02.632Z,44.75
2022-12-01T03:11:01.810Z,45.49
2022-12-01T03:12:02.266Z,45.37
2022-12-01T03:13:00.591Z,48.46
2022-12-01T03:14:01.996Z,48.34
2022-12-01T03:15:00.417Z,47.95
2022-12-01T03:16:02.210Z,47.32
2022-12-01T03:17:00.522Z,45.37
2022-12-01T03:18:00.558Z,48.54
2022-12-01T03:19:00.797Z,47.58
2022-12-01T03:20:06.387Z,47.12
2022-12-01T03:21:00.599Z,47.84
2022-12-01T03:22:01.108Z,47.53
2022-12-01T03:23:00.978Z,48.78
2022-12-01T03:24:01.357Z,50.85
2022-12-01T03:25:01.790Z,48.39
2022-12-01T03:26:00.539Z,50.78
2022-12-01T03:27:00.388Z,51.16
2022-12-01T03:28:20.654Z,49.06
2022-12-01T03:29:00.378Z,47.71
2022-12-01T03:30:00.506Z,48.12
2022-12-01T03:31:00.639Z,48.09
2022-12-01T03:32:00.400Z,47.65
2022-12-01T03:34:00.549Z,48.59
2022-12-01T03:35:00.546Z,49.68
2022-12-01T03:36:00.455Z,50.77
2022-12-01T03:37:00.719Z,48.07
2022-12-01T03:38:00.441Z,46.10
2022-12-01T03:40:01.159Z,47.20
2022-12-01T03:41:00.443Z,45.12
2022-12-01T03:42:00.609Z,48.55
2022-12-01T03:43:01.542Z,47.20
2022-12-01T03:44:01.788Z,44.02
2022-12-01T03:45:01.706Z,46.67
2022-12-01T03:46:00.688Z,48.65
2022-12-01T03:47:01.817Z,45.50
2022-12-01T03:48:00.646Z,45.97
2022-12-01T03:49:00.937Z,47.30
2022-12-01T03:50:00.487Z,45.86
2022-12-01T03:51:05.183Z,45.80
2022-12-01T03:52:00.368Z,45.06
2022-12-01T03:53:00.373Z,47.77
2022-12-01T03:54:00.603Z,44.38
2022-12-01T03:55:00.584Z,46.72
2022-12-01T03:56:00.383Z,47.60
2022-12-01T03:57:00.325Z,45.62
2022-12-01T03:58:00.371Z,48.34
2022-12-01T03:59:00.367Z,46.69
2022-12-01T04:00:00.567Z,47.77
2022-12-01T04:01:00.402Z,45.20
2022-12-01T04:02:01.587Z,46.19
2022-12-01T04:03:00.376Z,46.18
2022-12-01T04:04:01.518Z,46.45
2022-12-01T04:05:00.375Z,46.42
2022-12-01T04:06:02.044Z,47.33
2022-12-01T04:07:00.440Z,50.48
2022-12-01T04:08:00.764Z,46.10
2022-12-01T04:09:00.434Z,45.04
2022-12-01T04:10:01.602Z,43.72
2022-12-01T04:11:00.430Z,55.57
2022-12-01T04:12:00.510Z,44.66
2022-12-01T04:13:00.461Z,46.18
2022-12-01T04:14:02.337Z,45.65
2022-12-01T04:15:00.333Z,44.63
2022-12-01T04:16:00.459Z,43.87
2022-12-01T04:17:01.577Z,45.34
2022-12-01T04:18:00.502Z,46.67
2022-12-01T04:19:00.465Z,50.27
2022-12-01T04:20:00.514Z,46.05
2022-12-01T04:21:01.897Z,57.45
2022-12-01T04:22:00.456Z,45.09
2022-12-01T04:23:00.476Z,74.27
2022-12-01T04:24:01.389Z,46.12
2022-12-01T04:25:00.527Z,45.22
2022-12-01T04:26:01.314Z,46.73
2022-12-01T04:27:00.360Z,48.51
2022-12-01T04:28:00.898Z,45.70
2022-12-01T04:29:00.483Z,44.05
2022-12-01T04:30:00.784Z,46.29
2022-12-01T04:31:01.602Z,45.24
2022-12-01T04:35:00.438Z,46.38
2022-12-01T04:36:00.523Z,46.42
2022-12-01T04:37:01.875Z,46.14
2022-12-01T04:38:00.462Z,48.35
2022-12-01T04:39:00.702Z,44.13
2022-12-01T04:40:00.473Z,48.16
2022-12-01T04:41:00.831Z,45.08
2022-12-01T04:42:00.425Z,44.31
2022-12-01T04:43:00.439Z,45.69
2022-12-01T04:44:00.595Z,48.01
2022-12-01T04:45:00.761Z,45.55
2022-12-01T04:46:01.618Z,46.93
2022-12-01T04:47:00.452Z,47.77
2022-12-01T04:48:00.447Z,43.72
2022-12-01T04:49:00.536Z,45.97
2022-12-01T04:50:01.191Z,44.54
2022-12-01T04:51:00.425Z,43.81
2022-12-01T04:52:01.452Z,43.91
2022-12-01T04:53:00.584Z,47.65
2022-12-01T04:54:00.936Z,45.95
2022-12-01T04:55:00.496Z,46.95
2022-12-01T04:56:00.418Z,44.79
2022-12-01T04:59:00.530Z,44.19
2022-12-01T05:00:00.664Z,45.62
2022-12-01T05:01:08.152Z,45.14
2022-12-01T05:02:00.811Z,45.20
2022-12-01T05:03:00.360Z,45.00
2022-12-01T05:04:00.397Z,44.11
2022-12-01T05:05:00.341Z,44.47
2022-12-01T05:06:00.472Z,43.86
2022-12-01T05:07:00.397Z,46.68
2022-12-01T05:08:00.492Z,46.56
2022-12-01T05:09:00.543Z,43.99
2022-12-01T05:10:00.381Z,42.82
2022-12-01T05:11:00.351Z,44.99
2022-12-01T05:12:00.629Z,42.96
2022-12-01T05:13:00.376Z,44.61
2022-12-01T05:14:00.390Z,45.39
2022-12-01T05:15:01.609Z,44.31
2022-12-01T05:16:00.479Z,42.34
2022-12-01T05:17:00.352Z,44.13
2022-12-01T05:18:00.657Z,43.15
2022-12-01T05:19:00.348Z,42.22
2022-12-01T05:20:00.533Z,42.70
2022-12-01T05:21:01.529Z,44.36
2022-12-01T05:22:00.413Z,43.94
2022-12-01T05:23:05.952Z,43.67
2022-12-01T05:24:00.806Z,42.96
2022-12-01T05:25:00.484Z,42.18
2022-12-01T05:26:00.835Z,43.33
2022-12-01T05:27:01.470Z,44.14
2022-12-01T05:28:00.385Z,43.24
2022-12-01T05:29:00.770Z,42.95
2022-12-01T05:30:00.452Z,43.37
2022-12-01T05:31:00.376Z,43.50
2022-12-01T05:32:00.602Z,42.45
2022-12-01T05:33:00.466Z,42.86
2022-12-01T05:34:01.579Z,41.96
2022-12-01T05:35:00.389Z,42.83
2022-12-01T05:36:01.552Z,42.69
2022-12-01T05:37:00.489Z,42.57
2022-12-01T05:38:07.372Z,42.31
2022-12-01T05:39:00.935Z,44.39
2022-12-01T05:40:01.601Z,44.07
2022-12-01T05:41:00.366Z,41.12
2022-12-01T05:42:01.580Z,44.04
2022-12-01T05:43:00.408Z,40.81
2022-12-01T05:44:00.791Z,43.76
2022-12-01T05:45:00.549Z,42.80
2022-12-01T05:46:02.063Z,43.19
2022-12-01T05:47:00.404Z,42.54
2022-12-01T05:48:00.727Z,41.69
2022-12-01T05:49:00.402Z,42.19
2022-12-01T05:50:05.222Z,41.12
2022-12-01T05:51:00.469Z,42.81
2022-12-01T05:52:01.579Z,41.92
2022-12-01T05:53:00.425Z,41.03
2022-12-01T05:54:01.514Z,41.29
2022-12-01T05:55:00.528Z,41.31
2022-12-01T05:56:01.376Z,41.09
2022-12-01T05:57:00.338Z,43.90
2022-12-01T05:58:02.416Z,40.31
2022-12-01T05:59:00.375Z,41.52
2022-12-01T06:00:01.045Z,42.66
2022-12-01T06:01:00.408Z,40.16
2022-12-01T06:02:00.503Z,40.70
2022-12-01T06:03:00.333Z,40.71
2022-12-01T06:04:00.628Z,39.92
2022-12-01T06:05:00.358Z,48.26
2022-12-01T06:06:00.415Z,40.75
2022-12-01T06:07:01.581Z,40.11
2022-12-01T06:08:00.518Z,41.53
2022-12-01T06:09:01.569Z,40.64
2022-12-01T06:10:00.488Z,41.73
2022-12-01T06:11:00.507Z,44.39
2022-12-01T06:12:00.434Z,39.93
2022-12-01T06:13:00.418Z,38.68
2022-12-01T06:14:00.412Z,41.85
2022-12-01T06:15:01.451Z,39.56
2022-12-01T06:16:00.642Z,39.39
2022-12-01T06:17:01.651Z,39.47
2022-12-01T06:18:01.883Z,39.86
2022-12-01T06:19:00.399Z,39.21
2022-12-01T06:20:00.462Z,40.38
2022-12-01T06:21:00.372Z,40.41
2022-12-01T06:22:00.524Z,42.03
2022-12-01T06:23:01.540Z,41.87
2022-12-01T06:24:00.474Z,40.47
2022-12-01T06:25:00.539Z,38.73
2022-12-01T06:26:00.486Z,44.78
2022-12-01T06:27:00.655Z,39.24
2022-12-01T06:28:00.369Z,38.64
2022-12-01T06:29:00.474Z,39.60
2022-12-01T06:30:00.434Z,40.43
2022-12-01T06:31:03.408Z,41.17
2022-12-01T06:32:00.518Z,43.18
2022-12-01T06:33:00.434Z,46.87
2022-12-01T06:34:01.524Z,39.92
2022-12-01T06:35:00.396Z,45.44
2022-12-01T06:36:00.695Z,42.20
2022-12-01T06:37:00.318Z,40.44
2022-12-01T06:38:01.146Z,42.21
2022-12-01T06:39:00.704Z,45.39
2022-12-01T06:40:01.126Z,41.31
2022-12-01T06:41:00.489Z,41.83
2022-12-01T06:42:00.718Z,40.95
2022-12-01T06:43:00.361Z,40.07
2022-12-01T06:44:00.940Z,41.36
2022-12-01T06:45:00.361Z,40.36
2022-12-01T06:46:02.377Z,42.05
2022-12-01T06:47:00.317Z,40.38
2022-12-01T06:48:00.467Z,38.84
2022-12-01T06:50:00.585Z,40.50
2022-12-01T06:51:00.467Z,39.86
2022-12-01T06:52:01.179Z,42.32
2022-12-01T06:53:01.937Z,44.49
2022-12-01T06:54:05.258Z,48.14
2022-12-01T06:55:02.050Z,47.65
2022-12-01T06:56:00.383Z,49.19
2022-12-01T06:57:00.604Z,41.40
2022-12-01T06:58:00.468Z,42.11
2022-12-01T06:59:00.338Z,40.81
2022-12-01T07:00:00.866Z,40.16
2022-12-01T07:01:00.561Z,38.76
2022-12-01T07:02:00.592Z,41.63
2022-12-01T07:03:00.425Z,38.11
2022-12-01T07:04:00.430Z,38.16
2022-12-01T07:05:01.025Z,38.46
2022-12-01T07:06:00.409Z,39.03
2022-12-01T07:07:00.992Z,37.47
2022-12-01T07:08:00.439Z,39.05
2022-12-01T07:09:01.528Z,38.20
2022-12-01T07:10:00.446Z,39.82
2022-12-01T07:11:00.826Z,38.39
2022-12-01T07:12:00.371Z,39.23
2022-12-01T07:13:01.661Z,38.78
2022-12-01T07:14:00.526Z,38.50
2022-12-01T07:15:08.592Z,36.78
2022-12-01T07:16:00.507Z,36.85
2022-12-01T07:17:00.789Z,36.97
2022-12-01T07:18:00.440Z,37.36
2022-12-01T07:19:00.361Z,37.71
2022-12-01T07:20:00.452Z,38.30
2022-12-01T07:21:00.647Z,37.39
2022-12-01T07:22:00.623Z,37.02
2022-12-01T07:23:00.385Z,37.37
2022-12-01T07:24:01.579Z,37.83
2022-12-01T07:25:00.475Z,37.01
2022-12-01T07:26:00.841Z,38.26
2022-12-01T07:27:00.331Z,41.44
2022-12-01T07:28:01.507Z,47.25
2022-12-01T07:29:00.517Z,45.67
2022-12-01T07:30:00.759Z,42.88
2022-12-01T07:31:00.383Z,40.83
2022-12-01T07:32:01.435Z,38.99
2022-12-01T07:33:00.696Z,40.53
2022-12-01T07:34:01.522Z,39.32
2022-12-01T07:35:00.802Z,36.93
2022-12-01T07:36:01.431Z,36.32
2022-12-01T07:37:00.352Z,39.51
2022-12-01T07:38:00.876Z,38.12
2022-12-01T07:39:00.365Z,38.48
2022-12-01T07:40:01.526Z,39.40
2022-12-01T07:41:00.437Z,36.41
2022-12-01T07:42:00.405Z,35.99
2022-12-01T07:43:00.458Z,38.07
2022-12-01T07:44:00.627Z,37.55
2022-12-01T07:45:00.365Z,36.27
2022-12-01T07:46:00.872Z,36.71
2022-12-01T07:47:00.424Z,35.76
2022-12-01T07:48:00.476Z,38.91
2022-12-01T07:49:00.450Z,40.82
2022-12-01T07:50:00.620Z,37.43
2022-12-01T07:51:00.359Z,38.35
2022-12-01T07:52:00.504Z,47.08
2022-12-01T07:53:00.298Z,39.80
2022-12-01T07:54:00.445Z,36.36
2022-12-01T07:55:01.527Z,38.59
2022-12-01T07:56:04.351Z,37.79
2022-12-01T07:57:00.447Z,36.89
2022-12-01T07:58:00.509Z,34.53
2022-12-01T07:59:01.469Z,37.49
2022-12-01T08:00:00.490Z,36.76
2022-12-01T08:01:00.374Z,35.97
2022-12-01T08:02:00.610Z,35.34
2022-12-01T08:03:01.584Z,34.90
2022-12-01T08:04:00.656Z,37.17
2022-12-01T08:05:01.389Z,34.70
2022-12-01T08:06:00.461Z,34.52
2022-12-01T08:07:00.446Z,36.25
2022-12-01T08:08:00.648Z,35.90
2022-12-01T08:09:00.464Z,33.82
2022-12-01T08:10:00.649Z,34.41
2022-12-01T08:11:00.315Z,35.36
2022-12-01T08:12:00.461Z,34.13
2022-12-01T08:13:00.370Z,36.28
2022-12-01T08:14:00.385Z,37.10
2022-12-01T08:15:00.441Z,33.43
2022-12-01T08:16:00.550Z,34.63
2022-12-01T08:17:00.449Z,37.11
2022-12-01T08:18:00.378Z,36.06
2022-12-01T08:19:00.652Z,34.76
2022-12-01T08:20:00.435Z,33.93
2022-12-01T08:21:02.424Z,33.92
2022-12-01T08:22:01.438Z,33.98
2022-12-01T08:23:00.334Z,32.52
2022-12-01T08:24:00.801Z,34.45
2022-12-01T08:25:00.380Z,34.30
2022-12-01T08:26:03.783Z,33.56
2022-12-01T08:27:00.333Z,35.81
2022-12-01T08:28:01.518Z,33.63
2022-12-01T08:29:00.419Z,34.50
2022-12-01T08:30:00.988Z,36.57
2022-12-01T08:31:00.420Z,35.39
2022-12-01T08:32:03.247Z,34.52
2022-12-01T08:33:00.324Z,34.84
2022-12-01T08:34:00.460Z,35.13
2022-12-01T08:35:00.439Z,32.33
2022-12-01T08:36:00.413Z,33.73
2022-12-01T08:37:00.436Z,34.81
2022-12-01T08:38:00.706Z,51.06
2022-12-01T08:39:01.555Z,45.10
2022-12-01T08:40:00.449Z,44.71
2022-12-01T08:41:02.958Z,42.29
2022-12-01T08:42:03.659Z,38.42
2022-12-01T08:43:01.733Z,37.43
2022-12-01T08:44:01.260Z,34.99
2022-12-01T08:45:00.403Z,35.36
2022-12-01T08:46:00.632Z,35.64
2022-12-01T08:47:00.396Z,35.85
2022-12-01T08:48:00.576Z,35.81
2022-12-01T08:49:00.938Z,35.16
2022-12-01T08:50:00.526Z,36.47
2022-12-01T08:51:01.502Z,35.29
2022-12-01T08:52:00.501Z,36.07
2022-12-01T08:53:00.434Z,33.64
2022-12-01T08:54:00.519Z,34.57
2022-12-01T08:55:01.523Z,34.03
2022-12-01T08:56:00.436Z,34.45
2022-12-01T08:57:01.480Z,35.39
2022-12-01T08:58:02.214Z,36.51
2022-12-01T08:59:00.741Z,40.51
2022-12-01T09:00:01.273Z,42.55
2022-12-01T09:01:00.359Z,37.68
2022-12-01T09:02:06.633Z,38.30
2022-12-01T09:03:04.452Z,37.33
2022-12-01T09:04:00.532Z,35.10
2022-12-01T09:05:00.369Z,34.60
2022-12-01T09:06:00.568Z,35.58
2022-12-01T09:07:00.338Z,35.48
2022-12-01T09:08:00.488Z,36.64
2022-12-01T09:09:00.709Z,35.27
2022-12-01T09:10:00.802Z,34.18
2022-12-01T09:11:00.776Z,37.27
2022-12-01T09:12:00.546Z,35.25
2022-12-01T09:13:00.761Z,33.78
2022-12-01T09:14:01.642Z,34.34
2022-12-01T09:15:00.483Z,33.47
2022-12-01T09:16:01.273Z,34.49
2022-12-01T09:17:00.488Z,34.45
2022-12-01T09:18:00.363Z,33.33
2022-12-01T09:19:00.438Z,34.30
2022-12-01T09:20:01.128Z,34.76
2022-12-01T09:21:00.410Z,37.88
2022-12-01T09:22:01.591Z,35.75
2022-12-01T09:23:00.383Z,33.24
2022-12-01T09:24:01.371Z,35.96
2022-12-01T09:25:00.381Z,34.74
2022-12-01T09:26:01.711Z,33.70
2022-12-01T09:27:00.497Z,33.53
2022-12-01T09:28:00.822Z,33.48
2022-12-01T09:29:00.472Z,34.09
2022-12-01T09:30:00.406Z,35.10
2022-12-01T09:31:00.571Z,34.91
2022-12-01T09:32:03.170Z,35.16
2022-12-01T09:33:00.305Z,33.57
2022-12-01T09:34:00.545Z,35.29
2022-12-01T09:35:00.590Z,34.04
2022-12-01T09:36:00.383Z,36.10
2022-12-01T09:37:00.974Z,35.85
2022-12-01T09:38:00.463Z,35.43
2022-12-01T09:39:00.348Z,34.57
2022-12-01T09:40:00.632Z,33.24
2022-12-01T09:41:01.076Z,34.50
2022-12-01T09:42:01.502Z,34.11
2022-12-01T09:43:01.002Z,33.02
2022-12-01T09:44:00.448Z,32.65
2022-12-01T09:45:01.351Z,34.56
2022-12-01T09:46:00.490Z,34.34
2022-12-01T09:47:00.767Z,33.26
2022-12-01T09:48:00.427Z,40.05
2022-12-01T09:50:00.391Z,56.53
2022-12-01T09:51:12.220Z,44.28
2022-12-01T09:52:00.446Z,41.71
2022-12-01T09:53:00.393Z,48.14
2022-12-01T09:54:00.410Z,49.14
2022-12-01T09:55:00.403Z,44.59
2022-12-01T09:56:07.313Z,42.26
2022-12-01T09:57:00.599Z,37.01
2022-12-01T09:58:00.395Z,38.89
2022-12-01T09:59:00.455Z,36.42
2022-12-01T10:00:00.498Z,36.64
2022-12-01T10:01:00.475Z,33.68
2022-12-01T10:02:01.258Z,34.57
2022-12-01T10:03:00.353Z,35.39
2022-12-01T10:04:00.542Z,33.43
2022-12-01T10:05:00.557Z,34.13
2022-12-01T10:06:28.800Z,34.87
2022-12-01T10:07:00.397Z,35.15
2022-12-01T10:08:01.320Z,36.09
2022-12-01T10:09:00.504Z,33.72
2022-12-01T10:10:00.467Z,32.85
2022-12-01T10:11:00.404Z,37.47
2022-12-01T10:12:02.048Z,34.92
2022-12-01T10:13:00.416Z,33.24
2022-12-01T10:14:00.649Z,36.07
2022-12-01T10:15:00.331Z,35.50
2022-12-01T10:16:00.627Z,36.49
2022-12-01T10:18:00.464Z,36.49
2022-12-01T10:19:00.686Z,36.91
2022-12-01T10:20:00.879Z,33.27
2022-12-01T10:21:00.539Z,34.92
2022-12-01T10:22:00.681Z,34.59
2022-12-01T10:23:00.514Z,33.83
2022-12-01T10:24:00.575Z,34.98
2022-12-01T10:25:00.478Z,33.74
2022-12-01T10:26:00.451Z,34.79
2022-12-01T10:27:01.541Z,37.29
2022-12-01T10:28:00.406Z,35.74
2022-12-01T10:29:00.384Z,35.54
2022-12-01T10:30:00.480Z,34.97
2022-12-01T10:31:00.426Z,33.88
2022-12-01T10:32:00.560Z,35.37
2022-12-01T10:33:00.699Z,35.97
2022-12-01T10:34:03.867Z,33.32
2022-12-01T10:35:01.410Z,34.42
2022-12-01T10:36:00.420Z,36.33
2022-12-01T10:37:00.398Z,34.57
2022-12-01T10:38:00.618Z,33.98
2022-12-01T10:39:01.337Z,32.47
2022-12-01T10:40:00.587Z,34.31
2022-12-01T10:41:00.436Z,33.72
2022-12-01T10:42:00.442Z,35.15
2022-12-01T10:43:00.468Z,35.58
2022-12-01T10:44:00.387Z,34.16
2022-12-01T10:45:00.570Z,35.01
2022-12-01T10:46:00.488Z,33.20
2022-12-01T10:47:00.334Z,38.90
2022-12-01T10:48:00.465Z,35.26
2022-12-01T10:49:00.414Z,35.71
2022-12-01T10:50:00.393Z,34.72
2022-12-01T10:51:00.383Z,38.61
2022-12-01T10:52:01.099Z,33.57
2022-12-01T10:53:00.376Z,31.45
2022-12-01T10:54:00.396Z,32.79
2022-12-01T10:55:00.343Z,35.05
2022-12-01T10:56:01.234Z,36.04
2022-12-01T10:57:00.468Z,34.57
2022-12-01T10:58:06.179Z,35.02
2022-12-01T10:59:00.341Z,33.66
2022-12-01T11:00:02.068Z,33.39
2022-12-01T11:01:00.853Z,34.60
2022-12-01T11:02:01.320Z,34.73
2022-12-01T11:03:00.645Z,35.19
2022-12-01T11:04:01.936Z,33.78
2022-12-01T11:05:00.360Z,32.95
2022-12-01T11:06:07.568Z,33.16
2022-12-01T11:07:00.486Z,32.30
2022-12-01T11:08:00.653Z,40.23
2022-12-01T11:09:00.447Z,32.30
2022-12-01T11:10:00.803Z,33.71
2022-12-01T11:11:00.546Z,33.88
2022-12-01T11:12:00.568Z,34.28
2022-12-01T11:13:00.323Z,33.22
2022-12-01T11:14:00.566Z,32.00
2022-12-01T11:15:00.484Z,34.78
2022-12-01T11:16:00.678Z,33.28
2022-12-01T11:17:00.763Z,35.10
2022-12-01T11:18:00.482Z,32.24
2022-12-01T11:19:00.606Z,33.84
2022-12-01T11:20:00.740Z,35.80
2022-12-01T11:21:00.791Z,34.34
2022-12-01T11:22:00.741Z,33.18
2022-12-01T11:23:01.514Z,33.16
2022-12-01T11:24:00.486Z,32.16
2022-12-01T11:25:01.889Z,34.25
2022-12-01T11:26:00.386Z,33.55
2022-12-01T11:27:00.642Z,33.99
2022-12-01T11:28:00.727Z,33.78
2022-12-01T11:29:00.640Z,35.49
2022-12-01T11:30:00.659Z,31.73
2022-12-01T11:31:00.716Z,33.53
2022-12-01T11:32:00.557Z,30.68
2022-12-01T11:33:01.486Z,31.25
2022-12-01T11:34:00.390Z,32.21
2022-12-01T11:35:01.442Z,32.55
2022-12-01T11:36:00.562Z,31.29
2022-12-01T11:37:00.429Z,32.01
2022-12-01T11:38:28.358Z,31.15
2022-12-01T11:39:00.459Z,30.57
2022-12-01T11:40:00.396Z,43.05
2022-12-01T11:41:00.526Z,33.25
2022-12-01T11:42:01.690Z,31.10
2022-12-01T11:44:01.914Z,29.31
2022-12-01T11:45:00.439Z,29.40
2022-12-01T11:46:00.615Z,30.82
2022-12-01T11:47:21.522Z,28.69
2022-12-01T11:48:00.586Z,29.04
2022-12-01T11:49:00.400Z,28.39
2022-12-01T11:50:01.883Z,25.69
2022-12-01T11:51:00.431Z,26.59
2022-12-01T11:52:00.709Z,26.67
2022-12-01T11:53:00.380Z,29.40
2022-12-01T11:54:01.676Z,27.64
2022-12-01T11:55:02.342Z,28.36
2022-12-01T11:56:00.415Z,29.98
2022-12-01T11:57:31.703Z,32.12
2022-12-01T11:58:01.498Z,26.10
2022-12-01T11:59:00.488Z,28.85
2022-12-01T12:00:00.554Z,30.51
2022-12-01T12:02:00.854Z,29.10
2022-12-01T12:03:00.657Z,31.33
2022-12-01T12:04:00.529Z,30.14
2022-12-01T12:05:00.348Z,30.60
2022-12-01T12:07:00.384Z,33.27
2022-12-01T12:08:00.585Z,30.47
2022-12-01T12:09:00.552Z,31.30
2022-12-01T12:10:00.488Z,31.18
2022-12-01T12:11:00.418Z,26.06
2022-12-01T12:12:00.480Z,29.75
2022-12-01T12:13:00.380Z,27.75
2022-12-01T12:14:00.636Z,28.38
2022-12-01T12:15:00.405Z,27.26
2022-12-01T12:16:00.442Z,27.63
2022-12-01T12:17:00.589Z,26.66
2022-12-01T12:18:00.538Z,27.26
2022-12-01T12:19:01.528Z,28.05
2022-12-01T12:20:07.696Z,30.67
2022-12-01T12:21:00.850Z,31.38
2022-12-01T12:22:00.583Z,28.91
2022-12-01T12:23:01.420Z,29.30
2022-12-01T12:24:00.474Z,30.52
2022-12-01T12:25:00.485Z,29.82
2022-12-01T12:26:00.530Z,28.24
2022-12-01T12:27:00.468Z,29.49
2022-12-01T12:28:00.570Z,30.60
2022-12-01T12:29:00.547Z,30.07
2022-12-01T12:30:00.593Z,28.37
2022-12-01T12:31:00.562Z,28.77
2022-12-01T12:32:02.919Z,31.75
2022-12-01T12:33:00.347Z,27.84
2022-12-01T12:34:00.465Z,30.78
2022-12-01T12:35:00.665Z,29.24
2022-12-01T12:36:00.397Z,28.25
2022-12-01T12:37:00.290Z,32.25
2022-12-01T12:38:00.458Z,26.79
2022-12-01T12:39:00.354Z,29.60
2022-12-01T12:40:00.368Z,27.93
2022-12-01T12:41:00.672Z,29.97
2022-12-01T12:42:00.435Z,31.01
2022-12-01T12:43:00.573Z,27.24
2022-12-01T12:44:00.362Z,28.82
2022-12-01T12:45:00.663Z,28.34
2022-12-01T12:46:00.520Z,28.21
2022-12-01T12:47:00.319Z,29.99
2022-12-01T12:48:00.619Z,29.11
2022-12-01T12:49:19.146Z,28.74
2022-12-01T12:50:00.443Z,26.92
2022-12-01T12:51:00.470Z,28.01
2022-12-01T12:52:06.555Z,27.33
2022-12-01T12:53:00.476Z,27.98
2022-12-01T12:54:00.568Z,31.77
2022-12-01T12:55:00.488Z,28.36
2022-12-01T12:56:00.581Z,28.71
2022-12-01T12:57:00.548Z,29.53
2022-12-01T12:58:00.663Z,29.62
2022-12-01T12:59:00.427Z,29.59
2022-12-01T13:00:00.748Z,28.48
2022-12-01T13:01:00.490Z,29.71
2022-12-01T13:02:00.562Z,28.57
2022-12-01T13:03:00.781Z,28.46
2022-12-01T13:04:00.448Z,28.49
2022-12-01T13:05:00.485Z,30.94
2022-12-01T13:07:00.360Z,29.37
2022-12-01T13:08:00.753Z,31.27
2022-12-01T13:09:00.433Z,29.03
2022-12-01T13:10:00.959Z,31.40
2022-12-01T13:11:00.339Z,30.74